sensor_id;sensor_type;location;lat;lon;timestamp;temperature;humidity
18753;DHT22;9505;50.882;5.350;2022-11-15T00:01:48;11.80;99.90
18753;DHT22;9505;50.882;5.350;2022-11-15T00:04:13;11.80;99.90
18753;DHT22;9505;50.882;5.350;2022-11-15T00:06:39;11.80;99.90
18753;DHT22;9505;50.882;5.350;2022-11-15T00:09:05;11.90;99.90
18753;DHT22;9505;50.882;5.350;2022-11-15T00:11:30;11.80;99.90
18753;DHT22;9505;50.882;5.350;2022-11-15T00:13:57;11.80;99.90
18753;DHT22;9505;50.882;5.350;2022-11-15T00:16:23;11.80;99.90
18753;DHT22;9505;50.882;5.350;2022-11-15T00:18:49;11.80;99.90
18753;DHT22;9505;50.882;5.350;2022-11-15T00:21:16;11.80;99.90
18753;DHT22;9505;50.882;5.350;2022-11-15T00:23:42;11.80;99.90
18753;DHT22;9505;50.882;5.350;2022-11-15T00:26:12;11.80;99.90
18753;DHT22;9505;50.882;5.350;2022-11-15T00:28:38;11.90;99.90
18753;DHT22;9505;50.882;5.350;2022-11-15T00:31:06;11.80;99.90
18753;DHT22;9505;50.882;5.350;2022-11-15T00:33:32;11.90;99.90
18753;DHT22;9505;50.882;5.350;2022-11-15T00:36:08;11.90;99.90
18753;DHT22;9505;50.882;5.350;2022-11-15T00:38:38;11.90;99.90
18753;DHT22;9505;50.882;5.350;2022-11-15T00:41:06;12.00;99.90
18753;DHT22;9505;50.882;5.350;2022-11-15T00:43:32;12.00;99.90
18753;DHT22;9505;50.882;5.350;2022-11-15T00:45:58;12.00;99.90
18753;DHT22;9505;50.882;5.350;2022-11-15T00:48:24;12.00;99.90
18753;DHT22;9505;50.882;5.350;2022-11-15T00:50:50;12.00;99.90
18753;DHT22;9505;50.882;5.350;2022-11-15T00:53:16;12.10;99.90
18753;DHT22;9505;50.882;5.350;2022-11-15T00:55:42;12.00;99.90
18753;DHT22;9505;50.882;5.350;2022-11-15T00:58:07;12.00;99.90
18753;DHT22;9505;50.882;5.350;2022-11-15T01:00:33;12.00;99.90
18753;DHT22;9505;50.882;5.350;2022-11-15T01:03:00;12.00;99.90
18753;DHT22;9505;50.882;5.350;2022-11-15T01:05:26;12.00;99.90
18753;DHT22;9505;50.882;5.350;2022-11-15T01:07:55;12.00;99.90
18753;DHT22;9505;50.882;5.350;2022-11-15T01:10:22;12.00;99.90
18753;DHT22;9505;50.882;5.350;2022-11-15T01:12:48;12.00;99.90
18753;DHT22;9505;50.882;5.350;2022-11-15T01:15:14;12.00;99.90
18753;DHT22;9505;50.882;5.350;2022-11-15T01:17:40;12.10;99.90
18753;DHT22;9505;50.882;5.350;2022-11-15T01:20:06;12.10;99.90
18753;DHT22;9505;50.882;5.350;2022-11-15T01:22:32;12.10;99.90
18753;DHT22;9505;50.882;5.350;2022-11-15T01:24:57;12.10;99.90
18753;DHT22;9505;50.882;5.350;2022-11-15T01:27:23;12.10;99.90
18753;DHT22;9505;50.882;5.350;2022-11-15T01:29:49;12.10;99.90
18753;DHT22;9505;50.882;5.350;2022-11-15T01:32:14;12.10;99.90
18753;DHT22;9505;50.882;5.350;2022-11-15T01:34:40;12.10;99.90
18753;DHT22;9505;50.882;5.350;2022-11-15T01:37:06;12.10;99.90
18753;DHT22;9505;50.882;5.350;2022-11-15T01:39:31;12.20;99.90
18753;DHT22;9505;50.882;5.350;2022-11-15T01:41:57;12.20;99.90
18753;DHT22;9505;50.882;5.350;2022-11-15T01:44:49;12.20;99.90
18753;DHT22;9505;50.882;5.350;2022-11-15T01:47:21;12.20;99.90
18753;DHT22;9505;50.882;5.350;2022-11-15T01:50:19;12.30;99.90
18753;DHT22;9505;50.882;5.350;2022-11-15T01:52:46;12.30;99.90
18753;DHT22;9505;50.882;5.350;2022-11-15T01:55:30;12.30;99.90
18753;DHT22;9505;50.882;5.350;2022-11-15T01:57:59;12.40;99.90
18753;DHT22;9505;50.882;5.350;2022-11-15T02:00:28;12.40;99.90
18753;DHT22;9505;50.882;5.350;2022-11-15T02:02:54;12.40;99.90
18753;DHT22;9505;50.882;5.350;2022-11-15T02:05:20;12.40;99.90
18753;DHT22;9505;50.882;5.350;2022-11-15T02:07:46;12.50;99.90
18753;DHT22;9505;50.882;5.350;2022-11-15T02:10:21;12.50;99.90
18753;DHT22;9505;50.882;5.350;2022-11-15T02:12:47;12.50;99.90
18753;DHT22;9505;50.882;5.350;2022-11-15T02:15:13;12.50;99.90
18753;DHT22;9505;50.882;5.350;2022-11-15T02:26:50;12.60;99.90
18753;DHT22;9505;50.882;5.350;2022-11-15T02:32:18;12.60;99.90
18753;DHT22;9505;50.882;5.350;2022-11-15T02:35:12;12.60;99.90
18753;DHT22;9505;50.882;5.350;2022-11-15T02:38:12;12.60;99.90
18753;DHT22;9505;50.882;5.350;2022-11-15T02:41:01;12.70;99.90
18753;DHT22;9505;50.882;5.350;2022-11-15T02:44:00;12.70;99.90
18753;DHT22;9505;50.882;5.350;2022-11-15T02:46:51;12.70;99.90
18753;DHT22;9505;50.882;5.350;2022-11-15T02:49:38;12.70;99.90
18753;DHT22;9505;50.882;5.350;2022-11-15T02:52:04;12.70;99.90
18753;DHT22;9505;50.882;5.350;2022-11-15T02:54:32;12.60;99.90
18753;DHT22;9505;50.882;5.350;2022-11-15T02:57:03;12.60;99.90
18753;DHT22;9505;50.882;5.350;2022-11-15T03:05:09;12.60;99.90
18753;DHT22;9505;50.882;5.350;2022-11-15T03:07:54;12.50;99.90
18753;DHT22;9505;50.882;5.350;2022-11-15T03:10:29;12.50;99.90
18753;DHT22;9505;50.882;5.350;2022-11-15T03:13:00;12.40;99.90
18753;DHT22;9505;50.882;5.350;2022-11-15T03:15:39;12.40;99.90
18753;DHT22;9505;50.882;5.350;2022-11-15T03:18:19;12.40;99.90
18753;DHT22;9505;50.882;5.350;2022-11-15T03:20:47;12.40;99.90
18753;DHT22;9505;50.882;5.350;2022-11-15T03:23:14;12.40;99.90
18753;DHT22;9505;50.882;5.350;2022-11-15T03:25:46;12.30;99.90
18753;DHT22;9505;50.882;5.350;2022-11-15T03:28:16;12.40;99.90
18753;DHT22;9505;50.882;5.350;2022-11-15T03:30:45;12.30;99.90
18753;DHT22;9505;50.882;5.350;2022-11-15T03:33:12;12.30;99.90
18753;DHT22;9505;50.882;5.350;2022-11-15T03:35:41;12.30;99.90
18753;DHT22;9505;50.882;5.350;2022-11-15T03:38:24;12.30;99.90
18753;DHT22;9505;50.882;5.350;2022-11-15T03:41:21;12.30;99.90
18753;DHT22;9505;50.882;5.350;2022-11-15T03:43:57;12.30;99.90
18753;DHT22;9505;50.882;5.350;2022-11-15T03:46:27;12.30;99.90
18753;DHT22;9505;50.882;5.350;2022-11-15T03:49:17;12.30;99.90
18753;DHT22;9505;50.882;5.350;2022-11-15T03:51:45;12.30;99.90
18753;DHT22;9505;50.882;5.350;2022-11-15T03:54:12;12.30;99.90
18753;DHT22;9505;50.882;5.350;2022-11-15T03:56:37;12.30;99.90
18753;DHT22;9505;50.882;5.350;2022-11-15T03:59:03;12.30;99.90
18753;DHT22;9505;50.882;5.350;2022-11-15T04:01:28;12.30;99.90
18753;DHT22;9505;50.882;5.350;2022-11-15T04:03:54;12.20;99.90
18753;DHT22;9505;50.882;5.350;2022-11-15T04:06:19;12.30;99.90
18753;DHT22;9505;50.882;5.350;2022-11-15T04:08:45;12.30;99.90
18753;DHT22;9505;50.882;5.350;2022-11-15T04:11:10;12.30;99.90
18753;DHT22;9505;50.882;5.350;2022-11-15T04:13:36;12.30;99.90
18753;DHT22;9505;50.882;5.350;2022-11-15T04:16:02;12.30;99.90
18753;DHT22;9505;50.882;5.350;2022-11-15T04:18:27;12.30;99.90
18753;DHT22;9505;50.882;5.350;2022-11-15T04:20:53;12.30;99.90
18753;DHT22;9505;50.882;5.350;2022-11-15T04:23:37;12.30;99.90
18753;DHT22;9505;50.882;5.350;2022-11-15T04:26:22;12.30;99.90
18753;DHT22;9505;50.882;5.350;2022-11-15T04:28:48;12.30;99.90
18753;DHT22;9505;50.882;5.350;2022-11-15T04:31:32;12.30;99.90
18753;DHT22;9505;50.882;5.350;2022-11-15T04:33:58;12.30;99.90
18753;DHT22;9505;50.882;5.350;2022-11-15T04:36:24;12.40;99.90
18753;DHT22;9505;50.882;5.350;2022-11-15T04:39:09;12.40;99.90
18753;DHT22;9505;50.882;5.350;2022-11-15T04:41:34;12.40;99.90
18753;DHT22;9505;50.882;5.350;2022-11-15T04:44:00;12.40;99.90
18753;DHT22;9505;50.882;5.350;2022-11-15T04:46:26;12.40;99.90
18753;DHT22;9505;50.882;5.350;2022-11-15T04:48:52;12.40;99.90
18753;DHT22;9505;50.882;5.350;2022-11-15T04:51:18;12.40;99.90
18753;DHT22;9505;50.882;5.350;2022-11-15T04:53:43;12.30;99.90
18753;DHT22;9505;50.882;5.350;2022-11-15T04:56:09;12.30;99.90
18753;DHT22;9505;50.882;5.350;2022-11-15T04:58:35;12.00;99.90
18753;DHT22;9505;50.882;5.350;2022-11-15T05:01:11;11.70;99.90
18753;DHT22;9505;50.882;5.350;2022-11-15T05:03:37;11.40;99.90
18753;DHT22;9505;50.882;5.350;2022-11-15T05:06:22;11.30;99.90
18753;DHT22;9505;50.882;5.350;2022-11-15T05:08:47;11.10;99.90
18753;DHT22;9505;50.882;5.350;2022-11-15T05:11:13;11.10;99.90
18753;DHT22;9505;50.882;5.350;2022-11-15T05:13:39;11.10;99.90
18753;DHT22;9505;50.882;5.350;2022-11-15T05:16:04;11.10;99.90
18753;DHT22;9505;50.882;5.350;2022-11-15T05:18:30;11.20;99.90
18753;DHT22;9505;50.882;5.350;2022-11-15T05:20:55;11.20;99.90
18753;DHT22;9505;50.882;5.350;2022-11-15T05:23:21;11.30;99.90
18753;DHT22;9505;50.882;5.350;2022-11-15T05:25:47;11.30;99.90
18753;DHT22;9505;50.882;5.350;2022-11-15T05:28:13;11.30;99.90
18753;DHT22;9505;50.882;5.350;2022-11-15T05:30:38;11.30;99.90
18753;DHT22;9505;50.882;5.350;2022-11-15T05:33:04;11.30;99.90
18753;DHT22;9505;50.882;5.350;2022-11-15T05:35:33;11.20;99.90
18753;DHT22;9505;50.882;5.350;2022-11-15T05:37:59;11.20;99.90
18753;DHT22;9505;50.882;5.350;2022-11-15T05:40:26;11.20;99.90
18753;DHT22;9505;50.882;5.350;2022-11-15T05:42:52;11.10;99.90
18753;DHT22;9505;50.882;5.350;2022-11-15T05:45:17;11.10;99.90
18753;DHT22;9505;50.882;5.350;2022-11-15T05:47:43;11.00;99.90
18753;DHT22;9505;50.882;5.350;2022-11-15T05:50:12;11.00;99.90
18753;DHT22;9505;50.882;5.350;2022-11-15T05:52:39;10.90;99.90
18753;DHT22;9505;50.882;5.350;2022-11-15T05:55:06;10.90;99.90
18753;DHT22;9505;50.882;5.350;2022-11-15T05:57:32;10.90;99.90
18753;DHT22;9505;50.882;5.350;2022-11-15T05:59:58;10.80;99.90
18753;DHT22;9505;50.882;5.350;2022-11-15T06:02:24;10.80;99.90
18753;DHT22;9505;50.882;5.350;2022-11-15T06:04:49;10.80;99.90
18753;DHT22;9505;50.882;5.350;2022-11-15T06:07:15;10.70;99.90
18753;DHT22;9505;50.882;5.350;2022-11-15T06:09:40;10.70;99.90
18753;DHT22;9505;50.882;5.350;2022-11-15T06:12:06;10.70;99.90
18753;DHT22;9505;50.882;5.350;2022-11-15T06:14:31;10.70;99.90
18753;DHT22;9505;50.882;5.350;2022-11-15T06:16:57;10.70;99.90
18753;DHT22;9505;50.882;5.350;2022-11-15T06:19:23;10.60;99.90
18753;DHT22;9505;50.882;5.350;2022-11-15T06:21:48;10.60;99.90
18753;DHT22;9505;50.882;5.350;2022-11-15T06:24:14;10.60;99.90
18753;DHT22;9505;50.882;5.350;2022-11-15T06:26:39;10.60;99.90
18753;DHT22;9505;50.882;5.350;2022-11-15T06:29:05;10.60;99.90
18753;DHT22;9505;50.882;5.350;2022-11-15T06:31:30;10.50;99.90
18753;DHT22;9505;50.882;5.350;2022-11-15T06:33:56;10.50;99.90
18753;DHT22;9505;50.882;5.350;2022-11-15T06:36:22;10.40;99.90
18753;DHT22;9505;50.882;5.350;2022-11-15T06:38:48;10.30;99.90
18753;DHT22;9505;50.882;5.350;2022-11-15T06:41:14;10.30;99.90
18753;DHT22;9505;50.882;5.350;2022-11-15T06:43:40;10.20;99.90
18753;DHT22;9505;50.882;5.350;2022-11-15T06:46:07;10.20;99.90
18753;DHT22;9505;50.882;5.350;2022-11-15T06:48:33;10.10;99.90
18753;DHT22;9505;50.882;5.350;2022-11-15T06:51:00;10.10;99.90
18753;DHT22;9505;50.882;5.350;2022-11-15T06:53:27;10.10;99.90
18753;DHT22;9505;50.882;5.350;2022-11-15T06:55:53;10.10;99.90
18753;DHT22;9505;50.882;5.350;2022-11-15T06:58:20;10.10;99.90
18753;DHT22;9505;50.882;5.350;2022-11-15T07:00:46;10.10;99.90
18753;DHT22;9505;50.882;5.350;2022-11-15T07:03:11;10.10;99.90
18753;DHT22;9505;50.882;5.350;2022-11-15T07:05:37;10.20;99.90
18753;DHT22;9505;50.882;5.350;2022-11-15T07:08:03;10.20;99.90
18753;DHT22;9505;50.882;5.350;2022-11-15T07:10:29;10.20;99.90
18753;DHT22;9505;50.882;5.350;2022-11-15T07:12:55;10.30;99.90
18753;DHT22;9505;50.882;5.350;2022-11-15T07:15:23;10.30;99.90
18753;DHT22;9505;50.882;5.350;2022-11-15T07:17:49;10.30;99.90
18753;DHT22;9505;50.882;5.350;2022-11-15T07:20:15;10.30;99.90
18753;DHT22;9505;50.882;5.350;2022-11-15T07:22:41;10.30;99.90
18753;DHT22;9505;50.882;5.350;2022-11-15T07:25:07;10.30;99.90
18753;DHT22;9505;50.882;5.350;2022-11-15T07:27:33;10.30;99.90
18753;DHT22;9505;50.882;5.350;2022-11-15T07:29:59;10.20;99.90
18753;DHT22;9505;50.882;5.350;2022-11-15T07:32:25;10.20;99.90
18753;DHT22;9505;50.882;5.350;2022-11-15T07:34:50;10.20;99.90
18753;DHT22;9505;50.882;5.350;2022-11-15T07:37:16;10.10;99.90
18753;DHT22;9505;50.882;5.350;2022-11-15T07:39:43;10.10;99.90
18753;DHT22;9505;50.882;5.350;2022-11-15T07:42:08;10.20;99.90
18753;DHT22;9505;50.882;5.350;2022-11-15T07:44:52;10.20;99.90
18753;DHT22;9505;50.882;5.350;2022-11-15T07:47:18;10.30;99.90
18753;DHT22;9505;50.882;5.350;2022-11-15T07:49:44;10.40;99.90
18753;DHT22;9505;50.882;5.350;2022-11-15T07:52:11;10.60;99.90
18753;DHT22;9505;50.882;5.350;2022-11-15T07:54:37;10.70;99.90
18753;DHT22;9505;50.882;5.350;2022-11-15T07:57:03;10.70;99.90
18753;DHT22;9505;50.882;5.350;2022-11-15T07:59:28;10.70;99.90
18753;DHT22;9505;50.882;5.350;2022-11-15T08:01:54;10.70;99.90
18753;DHT22;9505;50.882;5.350;2022-11-15T08:04:20;10.60;99.90
18753;DHT22;9505;50.882;5.350;2022-11-15T08:06:45;10.60;99.90
18753;DHT22;9505;50.882;5.350;2022-11-15T08:09:11;10.70;99.90
18753;DHT22;9505;50.882;5.350;2022-11-15T08:11:37;10.70;99.90
18753;DHT22;9505;50.882;5.350;2022-11-15T08:14:02;10.60;99.90
18753;DHT22;9505;50.882;5.350;2022-11-15T08:16:28;10.70;99.90
18753;DHT22;9505;50.882;5.350;2022-11-15T08:18:53;10.70;99.90
18753;DHT22;9505;50.882;5.350;2022-11-15T08:21:20;10.60;99.90
18753;DHT22;9505;50.882;5.350;2022-11-15T08:23:46;10.60;99.90
18753;DHT22;9505;50.882;5.350;2022-11-15T08:26:11;10.60;99.90
18753;DHT22;9505;50.882;5.350;2022-11-15T08:28:37;10.70;99.90
18753;DHT22;9505;50.882;5.350;2022-11-15T08:31:03;10.90;99.90
18753;DHT22;9505;50.882;5.350;2022-11-15T08:33:30;11.00;99.90
18753;DHT22;9505;50.882;5.350;2022-11-15T08:35:56;11.20;99.90
18753;DHT22;9505;50.882;5.350;2022-11-15T08:38:22;11.30;99.90
18753;DHT22;9505;50.882;5.350;2022-11-15T08:40:48;11.70;99.90
18753;DHT22;9505;50.882;5.350;2022-11-15T08:43:15;11.90;99.90
18753;DHT22;9505;50.882;5.350;2022-11-15T08:45:40;12.40;99.90
18753;DHT22;9505;50.882;5.350;2022-11-15T08:48:06;13.20;99.90
18753;DHT22;9505;50.882;5.350;2022-11-15T08:50:32;13.50;99.90
18753;DHT22;9505;50.882;5.350;2022-11-15T08:52:59;13.50;99.90
18753;DHT22;9505;50.882;5.350;2022-11-15T08:55:28;13.30;99.90
18753;DHT22;9505;50.882;5.350;2022-11-15T08:57:57;13.10;99.90
18753;DHT22;9505;50.882;5.350;2022-11-15T09:00:23;13.00;99.90
18753;DHT22;9505;50.882;5.350;2022-11-15T09:02:48;13.20;99.90
18753;DHT22;9505;50.882;5.350;2022-11-15T09:05:14;13.70;99.90
18753;DHT22;9505;50.882;5.350;2022-11-15T09:07:40;14.30;99.90
18753;DHT22;9505;50.882;5.350;2022-11-15T09:10:06;14.60;99.90
18753;DHT22;9505;50.882;5.350;2022-11-15T09:12:32;14.90;99.90
18753;DHT22;9505;50.882;5.350;2022-11-15T09:14:58;14.60;99.90
18753;DHT22;9505;50.882;5.350;2022-11-15T09:17:24;14.20;99.90
18753;DHT22;9505;50.882;5.350;2022-11-15T09:19:49;14.20;99.90
18753;DHT22;9505;50.882;5.350;2022-11-15T09:22:15;14.00;99.90
18753;DHT22;9505;50.882;5.350;2022-11-15T09:24:40;14.00;99.90
18753;DHT22;9505;50.882;5.350;2022-11-15T09:27:06;13.80;99.90
18753;DHT22;9505;50.882;5.350;2022-11-15T09:29:31;13.40;99.90
18753;DHT22;9505;50.882;5.350;2022-11-15T09:31:57;13.20;99.90
18753;DHT22;9505;50.882;5.350;2022-11-15T09:34:22;13.10;99.90
18753;DHT22;9505;50.882;5.350;2022-11-15T09:36:48;13.20;99.90
18753;DHT22;9505;50.882;5.350;2022-11-15T09:39:14;13.00;99.90
18753;DHT22;9505;50.882;5.350;2022-11-15T09:49:23;13.00;99.90
18753;DHT22;9505;50.882;5.350;2022-11-15T09:51:50;13.40;99.90
18753;DHT22;9505;50.882;5.350;2022-11-15T09:54:35;13.80;99.90
18753;DHT22;9505;50.882;5.350;2022-11-15T09:59:43;14.30;99.90
18753;DHT22;9505;50.882;5.350;2022-11-15T10:05:09;14.50;99.90
18753;DHT22;9505;50.882;5.350;2022-11-15T10:12:52;15.10;99.90
18753;DHT22;9505;50.882;5.350;2022-11-15T10:15:18;14.70;99.90
18753;DHT22;9505;50.882;5.350;2022-11-15T10:17:53;14.50;99.90
18753;DHT22;9505;50.882;5.350;2022-11-15T10:22:50;13.90;99.90
18753;DHT22;9505;50.882;5.350;2022-11-15T10:25:32;14.00;99.90
18753;DHT22;9505;50.882;5.350;2022-11-15T10:28:15;14.00;99.90
18753;DHT22;9505;50.882;5.350;2022-11-15T10:30:47;14.10;99.90
18753;DHT22;9505;50.882;5.350;2022-11-15T10:36:20;13.50;99.90
18753;DHT22;9505;50.882;5.350;2022-11-15T10:38:51;13.10;99.90
18753;DHT22;9505;50.882;5.350;2022-11-15T10:46:38;13.10;99.90
18753;DHT22;9505;50.882;5.350;2022-11-15T10:49:19;13.10;99.90
18753;DHT22;9505;50.882;5.350;2022-11-15T10:54:11;13.00;99.90
18753;DHT22;9505;50.882;5.350;2022-11-15T10:56:39;13.00;99.90
18753;DHT22;9505;50.882;5.350;2022-11-15T10:59:09;13.10;99.90
18753;DHT22;9505;50.882;5.350;2022-11-15T11:01:46;13.10;99.90
18753;DHT22;9505;50.882;5.350;2022-11-15T11:04:12;13.20;99.90
18753;DHT22;9505;50.882;5.350;2022-11-15T11:06:58;13.20;99.90
18753;DHT22;9505;50.882;5.350;2022-11-15T11:09:38;13.20;99.90
18753;DHT22;9505;50.882;5.350;2022-11-15T11:12:06;13.20;99.90
18753;DHT22;9505;50.882;5.350;2022-11-15T11:14:37;13.60;99.90
18753;DHT22;9505;50.882;5.350;2022-11-15T11:24:47;13.20;99.90
18753;DHT22;9505;50.882;5.350;2022-11-15T11:27:16;13.30;99.90
18753;DHT22;9505;50.882;5.350;2022-11-15T11:35:19;13.70;99.90
18753;DHT22;9505;50.882;5.350;2022-11-15T11:37:53;13.80;99.90
18753;DHT22;9505;50.882;5.350;2022-11-15T11:43:40;14.00;99.90
18753;DHT22;9505;50.882;5.350;2022-11-15T11:46:28;13.80;99.90
18753;DHT22;9505;50.882;5.350;2022-11-15T11:48:59;13.60;99.90
18753;DHT22;9505;50.882;5.350;2022-11-15T11:51:39;13.60;99.90
18753;DHT22;9505;50.882;5.350;2022-11-15T11:56:39;13.60;99.90
18753;DHT22;9505;50.882;5.350;2022-11-15T11:59:28;13.40;99.90
18753;DHT22;9505;50.882;5.350;2022-11-15T12:01:57;13.40;99.90
18753;DHT22;9505;50.882;5.350;2022-11-15T12:04:36;13.50;99.90
18753;DHT22;9505;50.882;5.350;2022-11-15T12:07:25;13.40;99.90
18753;DHT22;9505;50.882;5.350;2022-11-15T12:09:59;13.50;99.90
18753;DHT22;9505;50.882;5.350;2022-11-15T12:15:20;13.80;99.90
18753;DHT22;9505;50.882;5.350;2022-11-15T12:17:48;13.90;99.90
18753;DHT22;9505;50.882;5.350;2022-11-15T12:20:25;13.90;99.90
18753;DHT22;9505;50.882;5.350;2022-11-15T12:23:15;13.90;99.90
18753;DHT22;9505;50.882;5.350;2022-11-15T12:25:54;13.80;99.90
18753;DHT22;9505;50.882;5.350;2022-11-15T12:31:01;13.90;99.90
18753;DHT22;9505;50.882;5.350;2022-11-15T12:33:41;14.00;99.90
18753;DHT22;9505;50.882;5.350;2022-11-15T12:38:59;14.10;99.90
18753;DHT22;9505;50.882;5.350;2022-11-15T12:41:32;14.20;99.90
18753;DHT22;9505;50.882;5.350;2022-11-15T12:43:58;14.20;99.90
18753;DHT22;9505;50.882;5.350;2022-11-15T12:48:59;14.30;99.90
18753;DHT22;9505;50.882;5.350;2022-11-15T12:59:52;14.40;99.90
18753;DHT22;9505;50.882;5.350;2022-11-15T13:02:41;14.60;99.90
18753;DHT22;9505;50.882;5.350;2022-11-15T13:07:58;14.70;99.90
18753;DHT22;9505;50.882;5.350;2022-11-15T13:13:08;14.60;99.90
18753;DHT22;9505;50.882;5.350;2022-11-15T13:18:36;14.50;99.90
18753;DHT22;9505;50.882;5.350;2022-11-15T13:21:04;14.40;99.90
18753;DHT22;9505;50.882;5.350;2022-11-15T13:23:54;14.40;99.90
18753;DHT22;9505;50.882;5.350;2022-11-15T13:26:21;14.50;99.90
18753;DHT22;9505;50.882;5.350;2022-11-15T13:28:51;14.50;99.90
18753;DHT22;9505;50.882;5.350;2022-11-15T13:33:51;14.60;99.90
18753;DHT22;9505;50.882;5.350;2022-11-15T13:36:29;14.50;99.90
18753;DHT22;9505;50.882;5.350;2022-11-15T13:39:22;14.50;99.90
18753;DHT22;9505;50.882;5.350;2022-11-15T13:41:50;14.70;99.90
18753;DHT22;9505;50.882;5.350;2022-11-15T13:44:22;14.70;99.90
18753;DHT22;9505;50.882;5.350;2022-11-15T13:46:47;14.80;99.90
18753;DHT22;9505;50.882;5.350;2022-11-15T13:49:13;14.80;99.90
18753;DHT22;9505;50.882;5.350;2022-11-15T13:51:48;14.70;99.90
18753;DHT22;9505;50.882;5.350;2022-11-15T13:56:57;14.60;99.90
18753;DHT22;9505;50.882;5.350;2022-11-15T13:59:30;14.60;99.90
18753;DHT22;9505;50.882;5.350;2022-11-15T14:02:02;14.60;99.90
18753;DHT22;9505;50.882;5.350;2022-11-15T14:04:30;14.60;99.90
18753;DHT22;9505;50.882;5.350;2022-11-15T14:07:00;14.50;99.90
18753;DHT22;9505;50.882;5.350;2022-11-15T14:09:40;14.40;99.90
18753;DHT22;9505;50.882;5.350;2022-11-15T14:14:50;14.20;99.90
18753;DHT22;9505;50.882;5.350;2022-11-15T14:17:33;14.20;99.90
18753;DHT22;9505;50.882;5.350;2022-11-15T14:19:59;14.20;99.90
18753;DHT22;9505;50.882;5.350;2022-11-15T14:22:29;14.10;99.90
18753;DHT22;9505;50.882;5.350;2022-11-15T14:25:14;14.10;99.90
18753;DHT22;9505;50.882;5.350;2022-11-15T14:27:43;14.00;99.90
18753;DHT22;9505;50.882;5.350;2022-11-15T14:30:17;14.00;99.90
18753;DHT22;9505;50.882;5.350;2022-11-15T14:32:50;14.00;99.90
18753;DHT22;9505;50.882;5.350;2022-11-15T14:35:18;14.00;99.90
18753;DHT22;9505;50.882;5.350;2022-11-15T14:37:45;14.00;99.90
18753;DHT22;9505;50.882;5.350;2022-11-15T14:40:19;13.90;99.90
18753;DHT22;9505;50.882;5.350;2022-11-15T14:42:47;13.90;99.90
18753;DHT22;9505;50.882;5.350;2022-11-15T14:45:16;13.90;99.90
18753;DHT22;9505;50.882;5.350;2022-11-15T14:47:43;13.90;99.90
18753;DHT22;9505;50.882;5.350;2022-11-15T14:50:18;13.90;99.90
18753;DHT22;9505;50.882;5.350;2022-11-15T14:52:44;13.90;99.90
18753;DHT22;9505;50.882;5.350;2022-11-15T14:55:27;13.90;99.90
18753;DHT22;9505;50.882;5.350;2022-11-15T14:57:57;13.90;99.90
18753;DHT22;9505;50.882;5.350;2022-11-15T15:00:23;14.00;99.90
18753;DHT22;9505;50.882;5.350;2022-11-15T15:02:51;14.00;99.90
18753;DHT22;9505;50.882;5.350;2022-11-15T15:05:23;14.00;99.90
18753;DHT22;9505;50.882;5.350;2022-11-15T15:07:50;14.10;99.90
18753;DHT22;9505;50.882;5.350;2022-11-15T15:10:17;14.10;99.90
18753;DHT22;9505;50.882;5.350;2022-11-15T15:12:43;14.00;99.90
18753;DHT22;9505;50.882;5.350;2022-11-15T15:15:18;14.00;99.90
18753;DHT22;9505;50.882;5.350;2022-11-15T15:17:45;14.00;99.90
18753;DHT22;9505;50.882;5.350;2022-11-15T15:20:11;13.90;99.90
18753;DHT22;9505;50.882;5.350;2022-11-15T15:22:37;13.90;99.90
18753;DHT22;9505;50.882;5.350;2022-11-15T15:25:08;13.80;99.90
18753;DHT22;9505;50.882;5.350;2022-11-15T15:27:35;13.80;99.90
18753;DHT22;9505;50.882;5.350;2022-11-15T15:30:01;13.70;99.90
18753;DHT22;9505;50.882;5.350;2022-11-15T15:32:26;13.60;99.90
18753;DHT22;9505;50.882;5.350;2022-11-15T15:34:52;13.50;99.90
18753;DHT22;9505;50.882;5.350;2022-11-15T15:37:24;13.50;99.90
18753;DHT22;9505;50.882;5.350;2022-11-15T15:39:54;13.40;99.90
18753;DHT22;9505;50.882;5.350;2022-11-15T15:42:21;13.30;99.90
18753;DHT22;9505;50.882;5.350;2022-11-15T15:44:47;13.20;99.90
18753;DHT22;9505;50.882;5.350;2022-11-15T15:47:16;13.20;99.90
18753;DHT22;9505;50.882;5.350;2022-11-15T15:49:42;13.10;99.90
18753;DHT22;9505;50.882;5.350;2022-11-15T15:52:08;13.00;99.90
18753;DHT22;9505;50.882;5.350;2022-11-15T15:54:33;12.80;99.90
18753;DHT22;9505;50.882;5.350;2022-11-15T15:56:59;12.70;99.90
18753;DHT22;9505;50.882;5.350;2022-11-15T15:59:25;12.60;99.90
18753;DHT22;9505;50.882;5.350;2022-11-15T16:01:50;12.40;99.90
18753;DHT22;9505;50.882;5.350;2022-11-15T16:04:16;12.40;99.90
18753;DHT22;9505;50.882;5.350;2022-11-15T16:06:42;12.30;99.90
18753;DHT22;9505;50.882;5.350;2022-11-15T16:09:13;12.20;99.90
18753;DHT22;9505;50.882;5.350;2022-11-15T16:11:39;12.10;99.90
18753;DHT22;9505;50.882;5.350;2022-11-15T16:14:05;12.00;99.90
18753;DHT22;9505;50.882;5.350;2022-11-15T16:16:31;12.00;99.90
18753;DHT22;9505;50.882;5.350;2022-11-15T16:18:57;11.90;99.90
18753;DHT22;9505;50.882;5.350;2022-11-15T16:21:22;11.90;99.90
18753;DHT22;9505;50.882;5.350;2022-11-15T16:23:48;11.90;99.90
18753;DHT22;9505;50.882;5.350;2022-11-15T16:26:22;11.80;99.90
18753;DHT22;9505;50.882;5.350;2022-11-15T16:28:49;11.80;99.90
18753;DHT22;9505;50.882;5.350;2022-11-15T16:31:15;11.80;99.90
18753;DHT22;9505;50.882;5.350;2022-11-15T16:33:43;11.80;99.90
18753;DHT22;9505;50.882;5.350;2022-11-15T16:36:25;11.80;99.90
18753;DHT22;9505;50.882;5.350;2022-11-15T16:38:51;11.70;99.90
18753;DHT22;9505;50.882;5.350;2022-11-15T16:41:17;11.70;99.90
18753;DHT22;9505;50.882;5.350;2022-11-15T16:43:45;11.70;99.90
18753;DHT22;9505;50.882;5.350;2022-11-15T16:46:20;11.70;99.90
18753;DHT22;9505;50.882;5.350;2022-11-15T16:48:47;11.70;99.90
18753;DHT22;9505;50.882;5.350;2022-11-15T16:51:13;11.70;99.90
18753;DHT22;9505;50.882;5.350;2022-11-15T16:53:39;11.70;99.90
18753;DHT22;9505;50.882;5.350;2022-11-15T16:56:25;11.70;99.90
18753;DHT22;9505;50.882;5.350;2022-11-15T16:58:55;11.70;99.90
18753;DHT22;9505;50.882;5.350;2022-11-15T17:01:25;11.70;99.90
18753;DHT22;9505;50.882;5.350;2022-11-15T17:03:51;11.70;99.90
18753;DHT22;9505;50.882;5.350;2022-11-15T17:06:17;11.70;99.90
18753;DHT22;9505;50.882;5.350;2022-11-15T17:08:44;11.70;99.90
18753;DHT22;9505;50.882;5.350;2022-11-15T17:11:14;11.70;99.90
18753;DHT22;9505;50.882;5.350;2022-11-15T17:13:40;11.70;99.90
18753;DHT22;9505;50.882;5.350;2022-11-15T17:16:11;11.60;99.90
18753;DHT22;9505;50.882;5.350;2022-11-15T17:18:37;11.70;99.90
18753;DHT22;9505;50.882;5.350;2022-11-15T17:21:08;11.70;99.90
18753;DHT22;9505;50.882;5.350;2022-11-15T17:23:34;11.70;99.90
18753;DHT22;9505;50.882;5.350;2022-11-15T17:26:01;11.80;99.90
18753;DHT22;9505;50.882;5.350;2022-11-15T17:28:29;11.80;99.90
18753;DHT22;9505;50.882;5.350;2022-11-15T17:30:54;11.90;99.90
18753;DHT22;9505;50.882;5.350;2022-11-15T17:33:20;11.90;99.90
18753;DHT22;9505;50.882;5.350;2022-11-15T17:35:45;11.90;99.90
18753;DHT22;9505;50.882;5.350;2022-11-15T17:38:11;11.90;99.90
18753;DHT22;9505;50.882;5.350;2022-11-15T17:40:38;12.00;99.90
18753;DHT22;9505;50.882;5.350;2022-11-15T17:43:05;12.00;99.90